Time;durP1;ratioP1;P1;durP2;ratioP2;P2;SDS_P1;SDS_P2;PMS_P1;PMS_P2;Temp;Humidity;BMP_temperature;BMP_pressure;BME280_temperature;BME280_humidity;BME280_pressure;Samples;Min_cycle;Max_cycle;Signal;HPM_P1;HPM_P2
2023/10/31 00:01:46;;;;;;;;;0.00;0.00;;;;;23.54;44.03;99868.69;4881150;29;45424;-77
2023/10/31 00:04:11;;;;;;;;;0.00;0.00;;;;;23.44;43.75;99847.06;4880947;29;45321;-77
2023/10/31 00:06:37;;;;;;;;;1.00;1.00;;;;;23.37;43.85;99839.94;4881211;29;45245;-77
2023/10/31 00:09:02;;;;;;;;;0.33;0.33;;;;;23.58;44.14;99871.69;4881303;29;45472;-77
2023/10/31 00:11:27;;;;;;;;;0.00;0.00;;;;;23.58;43.78;99879.66;4879979;29;45402;-76
2023/10/31 00:13:53;;;;;;;;;1.00;1.00;;;;;23.49;43.80;99866.66;4879695;29;46036;-77
2023/10/31 00:16:18;;;;;;;;;1.00;1.00;;;;;23.57;44.12;99883.38;4880722;29;45496;-77
2023/10/31 00:18:43;;;;;;;;;1.00;1.00;;;;;23.56;44.02;99882.53;4881244;29;45356;-78
2023/10/31 00:21:08;;;;;;;;;2.00;1.00;;;;;23.52;44.10;99878.72;4881124;29;45302;-77
2023/10/31 00:23:34;;;;;;;;;1.00;1.00;;;;;23.56;43.68;99885.19;4880933;29;45466;-78
2023/10/31 00:25:59;;;;;;;;;1.00;1.00;;;;;23.57;43.68;99880.72;4880483;29;57902;-77
2023/10/31 00:28:24;;;;;;;;;1.00;1.00;;;;;23.57;44.13;99886.03;4881016;29;45659;-77
2023/10/31 00:30:50;;;;;;;;;0.00;0.00;;;;;23.55;43.84;99885.44;4880649;29;45447;-77
2023/10/31 00:33:15;;;;;;;;;0.33;0.33;;;;;23.34;43.98;99856.28;4880653;29;46482;-78
2023/10/31 00:35:40;;;;;;;;;2.33;1.33;;;;;23.41;43.92;99872.19;4880773;29;45475;-78
2023/10/31 00:38:06;;;;;;;;;1.67;1.00;;;;;23.51;44.17;99883.19;4881024;29;45431;-78
2023/10/31 00:40:31;;;;;;;;;0.00;0.00;;;;;23.54;44.15;99883.78;4880864;29;45399;-78
2023/10/31 00:42:58;;;;;;;;;0.00;0.00;;;;;23.45;43.61;99872.56;4879349;29;47228;-78
2023/10/31 00:45:23;;;;;;;;;0.67;0.67;;;;;23.37;43.45;99863.84;4880183;29;45304;-78
2023/10/31 00:47:49;;;;;;;;;1.00;1.00;;;;;23.52;43.62;99891.97;4880708;29;45329;-78
2023/10/31 00:50:14;;;;;;;;;2.00;0.00;;;;;23.47;43.88;99881.16;4880770;29;45354;-77
2023/10/31 00:52:39;;;;;;;;;0.00;0.00;;;;;23.36;44.01;99870.19;4880278;29;46145;-77
2023/10/31 00:55:05;;;;;;;;;1.00;1.00;;;;;23.51;43.68;99885.03;4880326;29;50040;-77
2023/10/31 00:57:30;;;;;;;;;1.00;1.00;;;;;23.46;43.67;99877.69;4880667;29;45325;-76
2023/10/31 00:59:55;;;;;;;;;1.00;1.00;;;;;23.50;43.57;99883.38;4880256;29;45361;-77
2023/10/31 01:02:21;;;;;;;;;2.00;0.67;;;;;23.47;43.78;99881.94;4880385;29;46289;-77
2023/10/31 01:04:46;;;;;;;;;2.00;0.33;;;;;23.49;43.52;99882.59;4880204;29;45235;-77
2023/10/31 01:07:12;;;;;;;;;1.00;1.00;;;;;23.36;43.65;99858.75;4880305;29;45376;-76
2023/10/31 01:09:38;;;;;;;;;2.00;0.00;;;;;23.50;43.49;99891.34;4880422;29;45355;-77
2023/10/31 01:12:04;;;;;;;;;2.00;1.00;;;;;23.49;43.44;99882.59;4880154;29;46363;-76
2023/10/31 01:14:30;;;;;;;;;0.67;0.67;;;;;23.38;43.68;99864.66;4879927;29;45350;-77
2023/10/31 01:16:55;;;;;;;;;0.67;0.67;;;;;23.49;43.55;99879.09;4880508;29;45399;-76
2023/10/31 01:19:20;;;;;;;;;1.00;1.00;;;;;23.47;43.55;99879.28;4880294;29;45267;-77
2023/10/31 01:21:46;;;;;;;;;0.67;0.67;;;;;23.48;43.85;99877.47;4880021;29;52986;-77
2023/10/31 01:24:11;;;;;;;;;0.00;0.00;;;;;23.48;43.58;99888.06;4880260;29;45383;-77
2023/10/31 01:26:36;;;;;;;;;1.00;1.00;;;;;23.18;43.73;99841.72;4880327;29;45330;-76
2023/10/31 01:29:02;;;;;;;;;0.00;0.00;;;;;23.29;44.17;99864.06;4879963;29;45547;-76
2023/10/31 01:31:28;;;;;;;;;2.00;0.00;;;;;23.40;44.07;99879.34;4879967;29;45975;-76
2023/10/31 01:33:53;;;;;;;;;1.00;1.00;;;;;23.47;44.01;99892.56;4880106;29;45298;-76
2023/10/31 01:36:18;;;;;;;;;1.00;1.00;;;;;23.33;43.95;99865.31;4863235;29;45330;-76
2023/10/31 01:38:46;;;;;;;;;1.00;1.00;;;;;23.46;43.64;99888.31;4880111;29;45430;-76
2023/10/31 01:41:11;;;;;;;;;1.00;1.00;;;;;23.46;43.94;99879.50;4879743;29;47029;-76
2023/10/31 01:43:37;;;;;;;;;1.00;0.00;;;;;23.45;43.32;99876.03;4879741;29;45265;-77
2023/10/31 01:46:03;;;;;;;;;0.33;0.33;;;;;23.46;43.68;99879.50;4880157;29;45343;-77
2023/10/31 01:48:30;;;;;;;;;1.67;1.00;;;;;23.40;43.78;99867.91;4880088;29;45419;-76
2023/10/31 01:50:58;;;;;;;;;1.33;1.33;;;;;23.45;43.53;99881.34;4879858;29;45529;-76
2023/10/31 01:53:26;;;;;;;;;1.00;1.00;;;;;23.35;43.73;99860.59;4879528;29;45416;-76
2023/10/31 01:55:52;;;;;;;;;1.33;0.67;;;;;23.09;43.41;99822.56;4880823;29;45283;-76
2023/10/31 01:58:23;;;;;;;;;1.00;1.00;;;;;23.44;43.48;99887.72;4882850;29;45320;-77
2023/10/31 02:00:50;;;;;;;;;0.00;0.00;;;;;23.29;43.47;99867.56;4882900;29;46409;-78
2023/10/31 02:03:16;;;;;;;;;1.00;1.00;;;;;23.19;43.58;99859.25;4882726;29;45413;-76
2023/10/31 02:05:41;;;;;;;;;2.00;1.00;;;;;23.13;43.84;99847.66;4882834;29;45308;-76
2023/10/31 02:08:10;;;;;;;;;1.00;1.00;;;;;23.45;43.93;99904.41;4883098;29;45449;-78
2023/10/31 02:10:35;;;;;;;;;1.00;1.00;;;;;23.42;43.40;99894.25;4882499;29;47370;-75
2023/10/31 02:13:13;;;;;;;;;0.33;0.33;;;;;23.43;43.87;99899.34;4882829;29;45368;-77
2023/10/31 02:15:39;;;;;;;;;1.00;1.00;;;;;23.44;43.96;99897.50;4882873;29;45284;-76
2023/10/31 02:18:05;;;;;;;;;1.00;1.00;;;;;23.44;43.32;99897.50;4882885;29;45375;-76
2023/10/31 02:20:30;;;;;;;;;2.00;1.00;;;;;23.29;43.48;99882.66;4882642;29;45227;-77
2023/10/31 02:22:56;;;;;;;;;0.00;0.00;;;;;23.38;43.91;99886.72;4882771;29;45348;-77
2023/10/31 02:25:21;;;;;;;;;1.00;1.00;;;;;23.39;43.59;99883.00;4882452;29;45394;-77
2023/10/31 02:27:47;;;;;;;;;1.00;1.00;;;;;23.42;43.30;99887.06;4882726;29;45242;-76
2023/10/31 02:30:12;;;;;;;;;0.00;0.00;;;;;23.43;43.43;99886.06;4882431;29;45375;-77
2023/10/31 02:32:38;;;;;;;;;1.67;1.67;;;;;23.37;43.68;99877.09;4882501;29;45366;-77
2023/10/31 02:35:03;;;;;;;;;1.00;1.00;;;;;23.42;43.69;99891.59;4882792;29;45346;-77
2023/10/31 02:37:29;;;;;;;;;2.00;2.00;;;;;23.42;43.55;99894.25;4882583;29;45341;-77
2023/10/31 02:39:54;;;;;;;;;0.00;0.00;;;;;23.40;43.41;99889.97;4882054;29;46228;-77
2023/10/31 02:42:19;;;;;;;;;0.67;0.67;;;;;23.32;43.48;99868.16;4882317;29;45397;-77
2023/10/31 02:44:45;;;;;;;;;0.67;0.67;;;;;22.92;43.25;99812.47;4882454;29;45304;-77
2023/10/31 02:47:10;;;;;;;;;1.00;1.00;;;;;23.31;43.31;99871.84;4881145;29;45425;-78
2023/10/31 02:49:35;;;;;;;;;1.67;1.00;;;;;23.40;43.41;99881.19;4882315;29;46213;-77
2023/10/31 02:52:01;;;;;;;;;1.00;1.00;;;;;23.39;43.27;99874.25;4882258;29;45401;-78
2023/10/31 02:54:26;;;;;;;;;1.00;1.00;;;;;23.40;43.77;99874.03;4881937;29;45308;-77
2023/10/31 02:56:51;;;;;;;;;1.00;1.00;;;;;23.40;43.14;99882.00;4882328;29;45372;-77
2023/10/31 02:59:17;;;;;;;;;1.00;1.00;;;;;23.12;43.37;99839.88;4882109;29;46271;-77
2023/10/31 03:01:42;;;;;;;;;1.00;1.00;;;;;23.39;43.32;99885.66;4882188;29;45406;-77
2023/10/31 03:04:07;;;;;;;;;0.67;0.67;;;;;23.33;43.44;99875.09;4882054;29;45342;-77
2023/10/31 03:06:33;;;;;;;;;1.00;1.00;;;;;23.36;43.22;99878.16;4881676;29;45427;-78
2023/10/31 03:08:58;;;;;;;;;1.67;1.67;;;;;23.41;43.55;99890.78;4881664;29;45332;-77
2023/10/31 03:11:25;;;;;;;;;1.00;1.00;;;;;23.42;43.58;99896.91;4881923;29;45297;-77
2023/10/31 03:13:51;;;;;;;;;0.67;0.67;;;;;23.42;43.59;99894.25;4882102;29;45295;-77
2023/10/31 03:16:16;;;;;;;;;1.00;1.00;;;;;23.34;43.43;99892.66;4882035;29;45481;-77
2023/10/31 03:18:42;;;;;;;;;0.33;0.00;;;;;23.38;43.59;99896.50;4881688;29;45659;-77
2023/10/31 03:21:07;;;;;;;;;0.67;0.67;;;;;23.41;43.53;99914.66;4881891;29;45433;-77
2023/10/31 03:23:33;;;;;;;;;0.00;0.00;;;;;23.34;43.36;99904.06;4881715;29;45412;-77
2023/10/31 03:25:58;;;;;;;;;1.33;0.33;;;;;23.41;43.80;99914.66;4881887;29;45471;-77
2023/10/31 03:28:24;;;;;;;;;4.00;1.00;;;;;23.41;43.84;99917.31;4881543;29;52719;-77
2023/10/31 03:30:50;;;;;;;;;1.33;1.33;;;;;23.40;43.55;99919.16;4881584;29;45324;-78
2023/10/31 03:33:18;;;;;;;;;1.00;1.00;;;;;23.27;43.40;99897.97;4881841;29;45367;-76
2023/10/31 03:35:44;;;;;;;;;2.00;2.00;;;;;23.40;43.73;99929.78;4881622;29;45463;-77
2023/10/31 03:38:09;;;;;;;;;1.00;1.00;;;;;23.40;43.58;99934.25;4880953;29;46264;-77
2023/10/31 03:40:34;;;;;;;;;0.00;0.00;;;;;23.40;43.51;99935.09;4881573;29;45447;-77
2023/10/31 03:43:00;;;;;;;;;1.00;1.00;;;;;23.37;43.27;99929.38;4881651;29;45221;-77
2023/10/31 03:45:25;;;;;;;;;1.33;1.00;;;;;23.40;43.17;99935.09;4880840;29;45293;-77
2023/10/31 03:47:50;;;;;;;;;0.00;0.00;;;;;23.26;43.60;99923.69;4881511;29;46463;-77
2023/10/31 03:50:16;;;;;;;;;2.00;0.00;;;;;23.31;43.30;99923.09;4881381;29;45308;-77
2023/10/31 03:52:41;;;;;;;;;0.00;0.00;;;;;23.37;43.62;99930.19;4881197;29;45314;-76
2023/10/31 03:55:07;;;;;;;;;1.00;1.00;;;;;23.39;43.08;99945.94;4881470;29;45369;-77
2023/10/31 03:57:32;;;;;;;;;2.00;1.00;;;;;23.37;43.36;99943.47;4881315;29;45321;-77
2023/10/31 03:59:58;;;;;;;;;0.00;0.00;;;;;23.39;43.57;99952.03;4881356;29;45341;-77
2023/10/31 04:02:23;;;;;;;;;3.00;2.00;;;;;23.37;43.06;99945.31;4881351;29;45265;-77
2023/10/31 04:04:48;;;;;;;;;0.00;0.00;;;;;23.39;43.20;99941.41;4881107;29;45465;-77
2023/10/31 04:07:14;;;;;;;;;1.00;1.00;;;;;23.39;43.22;99953.88;4880483;29;46187;-77
2023/10/31 04:09:40;;;;;;;;;2.00;2.00;;;;;23.31;43.50;99941.69;4881295;29;45449;-76
2023/10/31 04:12:06;;;;;;;;;1.00;1.00;;;;;23.28;43.28;99940.25;4881172;29;45491;-76
2023/10/31 04:14:31;;;;;;;;;1.00;1.00;;;;;23.39;43.59;99956.53;4881215;29;45396;-76
2023/10/31 04:16:57;;;;;;;;;1.00;1.00;;;;;23.37;42.89;99953.25;4880969;29;47007;-76
2023/10/31 04:19:22;;;;;;;;;1.00;1.00;;;;;23.29;43.21;99952.47;4880367;29;45455;-77
2023/10/31 04:21:47;;;;;;;;;1.00;1.00;;;;;23.40;43.20;99968.78;4880905;29;45352;-76
2023/10/31 04:24:12;;;;;;;;;1.00;1.00;;;;;23.22;43.40;99942.91;4880993;29;45404;-78
2023/10/31 04:26:40;;;;;;;;;1.00;1.00;;;;;23.38;43.21;99974.31;4879659;29;48699;-78
2023/10/31 04:29:06;;;;;;;;;0.00;0.00;;;;;23.39;43.34;99983.09;4881011;29;45312;-77
2023/10/31 04:31:31;;;;;;;;;1.00;1.00;;;;;23.31;43.27;99967.38;4880828;29;45227;-76
2023/10/31 04:33:56;;;;;;;;;1.00;1.00;;;;;23.29;43.28;99978.19;4880898;29;45219;-77
2023/10/31 04:36:22;;;;;;;;;1.00;1.00;;;;;23.35;43.46;99976.56;4878680;29;59971;-76
2023/10/31 04:38:47;;;;;;;;;1.67;0.67;;;;;23.31;43.25;99973.53;4880952;29;45529;-76
2023/10/31 04:41:12;;;;;;;;;1.00;1.00;;;;;23.37;43.61;99980.63;4880732;29;45393;-77
2023/10/31 04:43:41;;;;;;;;;1.00;1.00;;;;;23.28;43.32;99980.06;4880742;29;45326;-77
2023/10/31 04:46:07;;;;;;;;;1.00;1.00;;;;;23.34;43.38;99985.56;4880661;29;46043;-77
2023/10/31 04:48:32;;;;;;;;;1.00;1.00;;;;;23.35;43.30;99993.31;4880430;29;45416;-76
2023/10/31 04:50:58;;;;;;;;;1.00;1.00;;;;;23.37;43.12;100007.16;4880457;29;45354;-76
2023/10/31 04:53:23;;;;;;;;;2.33;1.00;;;;;23.37;43.21;100003.69;4880543;29;45251;-76
2023/10/31 04:55:49;;;;;;;;;1.00;1.00;;;;;23.27;43.45;99989.03;4880484;29;45266;-76
2023/10/31 04:58:14;;;;;;;;;1.67;0.00;;;;;23.27;43.19;99988.22;4880443;29;45174;-76
2023/10/31 05:00:40;;;;;;;;;1.00;1.00;;;;;23.37;43.28;100014.31;4880550;29;45421;-77
2023/10/31 05:03:05;;;;;;;;;1.00;1.00;;;;;23.01;43.46;99950.94;4880300;29;45251;-77
2023/10/31 05:05:30;;;;;;;;;1.00;1.00;;;;;23.35;43.32;100009.22;4879798;29;46576;-77
2023/10/31 05:07:56;;;;;;;;;1.00;1.00;;;;;23.28;43.36;99998.63;4880347;29;45283;-76
2023/10/31 05:10:21;;;;;;;;;2.00;1.00;;;;;23.25;43.61;99991.09;4880493;29;45349;-77
2023/10/31 05:12:46;;;;;;;;;1.33;0.00;;;;;23.22;43.44;99990.69;4880649;29;45310;-76
2023/10/31 05:15:12;;;;;;;;;1.00;1.00;;;;;23.04;43.43;99971.75;4880056;29;45958;-76
2023/10/31 05:17:37;;;;;;;;;2.00;1.00;;;;;23.36;43.01;100007.38;4880360;29;45531;-76
2023/10/31 05:20:03;;;;;;;;;2.00;1.00;;;;;23.32;43.65;100011.47;4879854;29;45413;-77
2023/10/31 05:22:28;;;;;;;;;2.00;0.33;;;;;23.31;43.46;100005.38;4880362;29;45411;-76
2023/10/31 05:24:54;;;;;;;;;0.00;0.00;;;;;23.26;43.57;100015.81;4879820;29;52251;-76
2023/10/31 05:27:19;;;;;;;;;0.33;0.33;;;;;23.26;43.60;100011.28;4880038;29;45459;-76
2023/10/31 05:29:45;;;;;;;;;0.00;0.00;;;;;23.34;43.76;100018.19;4880311;29;45447;-75
2023/10/31 05:32:10;;;;;;;;;0.67;0.00;;;;;23.21;43.78;100003.16;4882943;29;45474;-77
2023/10/31 05:34:35;;;;;;;;;0.00;0.00;;;;;23.33;43.82;100021.91;4883014;29;45391;-77
2023/10/31 05:37:01;;;;;;;;;1.00;1.00;;;;;23.31;43.62;100015.16;4883515;29;45405;-76
2023/10/31 05:39:26;;;;;;;;;0.00;0.00;;;;;23.03;43.48;99982.59;4883503;29;45510;-76
2023/10/31 05:41:52;;;;;;;;;0.00;0.00;;;;;23.21;43.09;100003.16;4882220;29;45382;-77
2023/10/31 05:44:17;;;;;;;;;0.33;0.33;;;;;23.34;43.67;100022.72;4883313;29;45436;-76
2023/10/31 05:46:42;;;;;;;;;2.00;0.33;;;;;23.29;43.63;100024.13;4883173;29;45476;-76
2023/10/31 05:49:08;;;;;;;;;0.33;0.33;;;;;23.29;43.53;100026.78;4882762;29;53775;-76
2023/10/31 05:51:35;;;;;;;;;1.00;1.00;;;;;23.34;43.26;100031.47;4883349;29;45286;-76
2023/10/31 05:54:00;;;;;;;;;1.00;1.00;;;;;23.34;43.20;100023.50;4882892;29;46686;-76
2023/10/31 05:56:26;;;;;;;;;0.00;0.00;;;;;23.34;42.99;100036.00;4883048;29;45305;-76
2023/10/31 05:58:51;;;;;;;;;1.00;1.00;;;;;23.35;43.31;100035.75;4883165;29;45301;-76
2023/10/31 06:01:16;;;;;;;;;1.00;1.00;;;;;23.32;43.35;100038.84;4883256;29;45178;-76
2023/10/31 06:03:43;;;;;;;;;0.00;0.00;;;;;23.29;43.53;100034.75;4882523;29;45387;-76
2023/10/31 06:06:08;;;;;;;;;1.00;1.00;;;;;23.35;43.74;100045.56;4881576;29;45870;-76
2023/10/31 06:08:34;;;;;;;;;1.00;0.00;;;;;23.35;43.56;100045.56;4883097;29;45361;-76
2023/10/31 06:11:00;;;;;;;;;0.00;0.00;;;;;23.34;43.24;100058.00;4883075;29;45455;-76
2023/10/31 06:13:26;;;;;;;;;0.33;0.33;;;;;23.35;43.27;100050.88;4882647;29;46998;-76
2023/10/31 06:15:52;;;;;;;;;1.33;1.33;;;;;23.22;43.48;100039.28;4882857;29;45404;-76
2023/10/31 06:18:18;;;;;;;;;1.00;0.00;;;;;23.24;43.46;100039.88;4882512;29;45338;-76
2023/10/31 06:20:43;;;;;;;;;1.00;1.00;;;;;22.99;43.46;100003.41;4882769;29;45397;-76
2023/10/31 06:23:09;;;;;;;;;1.00;1.00;;;;;23.33;43.49;100053.75;4882825;29;46007;-75
2023/10/31 06:25:34;;;;;;;;;1.00;1.00;;;;;23.17;43.40;100039.91;4881445;29;45299;-76
2023/10/31 06:28:00;;;;;;;;;0.67;0.00;;;;;23.33;43.26;100061.72;4882954;29;45249;-74
2023/10/31 06:30:25;;;;;;;;;1.00;1.00;;;;;23.34;43.77;100059.88;4883024;29;45195;-77
2023/10/31 06:32:53;;;;;;;;;0.00;0.00;;;;;23.00;43.44;100004.22;4882200;29;46120;-77
2023/10/31 06:35:18;;;;;;;;;1.33;1.00;;;;;23.30;43.46;100054.16;4875510;29;45488;-75
2023/10/31 06:37:43;;;;;;;;;0.67;0.67;;;;;23.34;44.00;100046.59;4881271;29;45445;-76
2023/10/31 06:40:09;;;;;;;;;1.00;1.00;;;;;23.28;43.57;100058.88;4881581;29;45437;-75
2023/10/31 06:42:35;;;;;;;;;1.00;1.00;;;;;23.31;43.76;100068.25;4877344;29;46394;-76
2023/10/31 06:45:01;;;;;;;;;0.00;0.00;;;;;23.26;43.79;100051.09;4874913;29;46177;-77
2023/10/31 06:47:26;;;;;;;;;0.00;0.00;;;;;23.25;43.49;100067.22;4879570;29;46544;-77
2023/10/31 06:49:51;;;;;;;;;1.00;1.00;;;;;23.33;43.70;100076.81;4881313;29;45421;-77
2023/10/31 06:52:17;;;;;;;;;1.67;0.00;;;;;23.35;43.63;100083.53;4871183;29;45421;-76
2023/10/31 06:54:42;;;;;;;;;1.00;1.00;;;;;23.37;43.79;100091.28;4872686;29;45446;-75
2023/10/31 06:57:07;;;;;;;;;0.00;0.00;;;;;23.07;43.93;100050.94;4872414;29;45311;-77
2023/10/31 06:59:34;;;;;;;;;1.67;1.33;;;;;23.29;43.47;100076.41;4871523;29;45520;-75
2023/10/31 07:02:00;;;;;;;;;1.00;1.00;;;;;23.27;43.82;100075.78;4862722;29;45387;-73
2023/10/31 07:04:25;;;;;;;;;1.00;1.00;;;;;23.38;43.76;100090.28;4862838;29;45401;-74
2023/10/31 07:06:56;;;;;;;;;2.33;1.67;;;;;23.22;43.67;100071.13;4875168;29;45344;-79
2023/10/31 07:09:25;;;;;;;;;0.67;0.00;;;;;23.38;43.53;100107.03;4882196;29;45319;-77
2023/10/31 07:11:51;;;;;;;;;0.33;0.33;;;;;23.34;43.86;100097.03;4881860;29;46224;-77
2023/10/31 07:14:17;;;;;;;;;1.00;1.00;;;;;23.24;43.50;100092.13;4882195;29;45178;-77
2023/10/31 07:16:43;;;;;;;;;0.67;0.00;;;;;23.37;43.80;100112.53;4881815;29;45245;-81
2023/10/31 07:19:12;;;;;;;;;1.00;1.00;;;;;23.24;43.93;100095.59;4882391;29;45301;-80
2023/10/31 07:21:37;;;;;;;;;2.33;0.33;;;;;23.19;43.54;100092.75;4881846;29;47579;-80
2023/10/31 07:24:03;;;;;;;;;1.67;0.67;;;;;23.38;43.88;100130.09;4882057;29;45420;-79
2023/10/31 07:26:28;;;;;;;;;2.67;0.33;;;;;23.28;43.81;100115.41;4882250;29;45428;-80
2023/10/31 07:28:54;;;;;;;;;2.00;1.00;;;;;23.38;43.96;100127.44;4882090;29;47157;-80
2023/10/31 07:31:19;;;;;;;;;0.67;0.33;;;;;23.37;44.07;100133.75;4881310;29;47200;-80
2023/10/31 07:33:45;;;;;;;;;0.00;0.00;;;;;23.33;44.09;100129.91;4882013;29;45753;-80
2023/10/31 07:36:10;;;;;;;;;1.00;1.00;;;;;23.37;43.74;100134.59;4882486;29;45336;-80
2023/10/31 07:38:36;;;;;;;;;0.33;0.33;;;;;23.37;43.68;100136.41;4882209;29;45276;-80
2023/10/31 07:41:01;;;;;;;;;0.67;0.67;;;;;23.37;43.61;100133.75;4881996;29;45373;-80
2023/10/31 07:43:26;;;;;;;;;0.00;0.00;;;;;23.16;43.79;100107.25;4881756;29;45320;-80
2023/10/31 07:45:52;;;;;;;;;0.67;0.67;;;;;23.31;43.78;100145.22;4881867;29;45320;-80
2023/10/31 07:48:17;;;;;;;;;2.00;1.00;;;;;23.27;43.64;100137.66;4881979;29;45375;-79
2023/10/31 07:50:42;;;;;;;;;1.33;1.00;;;;;23.23;43.64;100132.97;4881911;29;46805;-80
2023/10/31 07:53:08;;;;;;;;;1.00;1.00;;;;;23.37;43.69;100152.34;4880670;29;45430;-79
2023/10/31 07:55:33;;;;;;;;;2.00;1.00;;;;;23.35;43.29;100144.59;4881267;29;46737;-79
2023/10/31 07:57:58;;;;;;;;;0.00;0.00;;;;;23.29;43.63;100146.22;4882170;29;45333;-79
2023/10/31 08:00:24;;;;;;;;;0.00;0.00;;;;;23.36;43.96;100158.69;4881082;29;46171;-79
2023/10/31 08:02:50;;;;;;;;;2.33;0.00;;;;;23.36;43.58;100156.03;4881447;29;45375;-79
2023/10/31 08:05:15;;;;;;;;;1.00;1.00;;;;;23.23;43.68;100144.41;4881675;29;45402;-80
2023/10/31 08:07:41;;;;;;;;;1.00;1.00;;;;;23.36;43.73;100162.16;4881121;29;45249;-80
2023/10/31 08:10:06;;;;;;;;;0.00;0.00;;;;;23.37;43.62;100162.94;4881313;29;46114;-79
2023/10/31 08:12:32;;;;;;;;;1.00;1.00;;;;;23.37;43.50;100176.22;4879979;29;45450;-79
2023/10/31 08:14:58;;;;;;;;;0.33;0.33;;;;;23.28;43.65;100162.38;4880923;29;45298;-79
2023/10/31 08:17:24;;;;;;;;;1.00;1.00;;;;;23.36;43.85;100167.47;4881211;29;45483;-79
2023/10/31 08:19:49;;;;;;;;;0.67;0.00;;;;;23.21;44.03;100140.34;4881117;29;47170;-79
2023/10/31 08:22:14;;;;;;;;;1.00;1.00;;;;;23.21;43.67;100143.00;4881010;29;45262;-79
2023/10/31 08:24:40;;;;;;;;;0.00;0.00;;;;;23.29;43.52;100163.97;4881186;29;45302;-79
2023/10/31 08:27:05;;;;;;;;;3.00;1.33;;;;;23.36;43.39;100178.09;4881109;29;45639;-79
2023/10/31 08:29:31;;;;;;;;;0.50;0.50;;;;;23.31;43.69;100177.88;4880776;29;45815;-79
2023/10/31 08:31:57;;;;;;;;;1.00;1.00;;;;;23.36;43.76;100187.88;4880797;29;45245;-79
2023/10/31 08:34:22;;;;;;;;;0.00;0.00;;;;;23.25;43.67;100176.88;4881213;29;45381;-79
2023/10/31 08:36:47;;;;;;;;;1.00;1.00;;;;;23.37;43.64;100197.47;4880943;29;45396;-79
2023/10/31 08:39:12;;;;;;;;;0.33;0.33;;;;;23.27;43.81;100188.09;4880287;29;56041;-79
2023/10/31 08:41:50;;;;;;;;;0.00;0.00;;;;;23.27;43.45;100180.13;4880504;29;49815;-79
2023/10/31 08:44:15;;;;;;;;;1.67;1.67;;;;;23.23;43.61;100170.13;4880636;29;45287;-79
2023/10/31 08:46:41;;;;;;;;;0.00;0.00;;;;;23.27;43.72;100172.16;4880983;29;45621;-79
2023/10/31 08:49:06;;;;;;;;;1.00;1.00;;;;;23.02;43.77;100135.66;4880913;29;46240;-79
2023/10/31 08:51:31;;;;;;;;;1.00;1.00;;;;;23.32;44.00;100189.31;4881063;29;45484;-80
2023/10/31 08:53:56;;;;;;;;;0.33;0.33;;;;;23.21;43.78;100166.88;4880907;29;45435;-79
2023/10/31 08:56:22;;;;;;;;;0.67;0.67;;;;;23.36;43.60;100204.63;4880800;29;45354;-79
2023/10/31 08:58:47;;;;;;;;;0.00;0.00;;;;;23.32;43.81;100197.25;4880188;29;45981;-79
2023/10/31 09:01:13;;;;;;;;;1.67;1.67;;;;;23.28;43.77;100197.69;4880577;29;47545;-79
2023/10/31 09:03:38;;;;;;;;;1.00;1.00;;;;;23.24;43.47;100185.84;4880747;29;45334;-79
2023/10/31 09:06:03;;;;;;;;;1.00;1.00;;;;;23.37;43.39;100218.69;4879282;29;45338;-79
2023/10/31 09:08:29;;;;;;;;;3.00;2.00;;;;;23.30;43.50;100208.09;4880754;29;46052;-79
2023/10/31 09:10:54;;;;;;;;;0.33;0.33;;;;;23.36;43.88;100217.09;4880910;29;45242;-79
2023/10/31 09:13:20;;;;;;;;;2.33;1.00;;;;;23.25;43.54;100205.25;4880225;29;47868;-79
2023/10/31 09:15:45;;;;;;;;;1.00;1.00;;;;;23.36;43.68;100222.38;4880719;29;45344;-79
2023/10/31 09:18:11;;;;;;;;;1.00;0.00;;;;;23.31;43.57;100212.41;4880296;29;46338;-80
2023/10/31 09:20:36;;;;;;;;;2.00;2.00;;;;;23.19;44.00;100204.22;4880667;29;45314;-80
2023/10/31 09:23:02;;;;;;;;;0.00;0.00;;;;;23.26;43.75;100212.97;4879347;29;45322;-79
2023/10/31 09:25:27;;;;;;;;;2.00;1.00;;;;;23.34;43.84;100224.44;4880206;29;45417;-79
2023/10/31 09:27:52;;;;;;;;;2.00;2.00;;;;;23.18;43.51;100203.41;4878593;29;47914;-80
2023/10/31 09:30:18;;;;;;;;;1.67;0.67;;;;;23.24;43.91;100217.69;4880240;29;45450;-79
2023/10/31 09:32:43;;;;;;;;;0.00;0.00;;;;;23.36;43.35;100230.34;4880297;29;45401;-80
2023/10/31 09:35:09;;;;;;;;;1.00;1.00;;;;;23.35;43.67;100223.41;4880220;29;45432;-79
2023/10/31 09:37:34;;;;;;;;;3.33;1.33;;;;;23.25;43.82;100226.47;4879934;29;45953;-79
2023/10/31 09:39:59;;;;;;;;;0.33;0.00;;;;;23.25;43.85;100226.47;4880136;29;45716;-80
2023/10/31 09:42:25;;;;;;;;;0.00;0.00;;;;;23.18;43.55;100213.22;4879921;29;45433;-80
2023/10/31 09:44:51;;;;;;;;;1.00;1.00;;;;;23.33;43.48;100238.72;4880054;29;45525;-80
2023/10/31 09:47:16;;;;;;;;;1.00;1.00;;;;;23.15;44.03;100208.31;4879992;29;45423;-80
2023/10/31 09:49:42;;;;;;;;;1.00;1.00;;;;;23.21;43.88;100211.97;4879982;29;45402;-80
2023/10/31 09:52:09;;;;;;;;;2.00;2.00;;;;;23.23;43.98;100226.69;4880071;29;45489;-79
2023/10/31 09:54:36;;;;;;;;;1.67;1.00;;;;;23.22;43.67;100227.69;4879626;29;45468;-78
2023/10/31 09:57:01;;;;;;;;;1.00;0.00;;;;;23.37;43.66;100248.72;4879632;29;45271;-80
2023/10/31 09:59:27;;;;;;;;;2.00;2.00;;;;;23.34;43.59;100249.13;4879936;29;45386;-80
2023/10/31 10:01:52;;;;;;;;;2.67;1.00;;;;;23.38;43.38;100253.03;4879879;29;45353;-80
2023/10/31 10:04:18;;;;;;;;;2.00;2.00;;;;;23.34;43.62;100248.34;4879721;29;45396;-80
2023/10/31 10:06:58;;;;;;;;;2.00;2.00;;;;;23.28;43.78;100239.34;4879400;29;46368;-80
2023/10/31 10:09:24;;;;;;;;;1.67;1.67;;;;;23.37;43.74;100264.66;4879499;29;45398;-79
2023/10/31 10:11:49;;;;;;;;;1.00;1.00;;;;;23.38;43.97;100270.78;4879648;29;45423;-79
2023/10/31 10:14:16;;;;;;;;;1.33;1.00;;;;;23.37;43.62;100269.97;4879597;29;45382;-79
2023/10/31 10:16:41;;;;;;;;;1.00;1.00;;;;;23.15;43.50;100232.19;4879045;29;47209;-79
2023/10/31 10:19:19;;;;;;;;;3.00;2.33;;;;;23.37;43.77;100269.97;4882601;29;45380;-80
2023/10/31 10:21:55;;;;;;;;;1.67;0.67;;;;;23.37;43.52;100269.13;4882891;29;45377;-79
2023/10/31 10:24:22;;;;;;;;;0.67;0.67;;;;;23.26;43.71;100255.44;4882168;29;45378;-79
2023/10/31 10:26:49;;;;;;;;;0.33;0.00;;;;;23.22;43.88;100256.88;4882666;29;45334;-79
2023/10/31 10:29:15;;;;;;;;;1.00;1.00;;;;;23.31;43.69;100262.81;4882714;29;45333;-79
2023/10/31 10:31:40;;;;;;;;;1.33;0.33;;;;;23.32;43.74;100272.41;4882763;29;45351;-79
2023/10/31 10:34:07;;;;;;;;;1.00;1.00;;;;;23.17;43.77;100254.03;4882488;29;45445;-79
2023/10/31 10:36:33;;;;;;;;;1.00;1.00;;;;;23.37;43.57;100285.88;4882369;29;46410;-79
2023/10/31 10:38:59;;;;;;;;;1.00;1.00;;;;;23.32;43.86;100274.22;4882153;29;45335;-79
2023/10/31 10:41:28;;;;;;;;;2.67;1.00;;;;;23.24;43.74;100265.44;4881187;29;45384;-79
2023/10/31 10:44:06;;;;;;;;;0.67;0.67;;;;;23.28;44.02;100281.81;4882582;29;45361;-79
2023/10/31 10:46:37;;;;;;;;;1.00;1.00;;;;;23.25;44.12;100279.53;4882322;29;45390;-79
2023/10/31 10:49:07;;;;;;;;;0.67;0.67;;;;;23.37;43.72;100293.84;4882214;29;45336;-79
2023/10/31 10:51:45;;;;;;;;;1.67;1.00;;;;;23.29;43.97;100281.59;4882576;29;45412;-78
2023/10/31 10:54:30;;;;;;;;;1.00;1.00;;;;;23.36;43.78;100294.06;4881794;29;45480;-79
2023/10/31 10:57:03;;;;;;;;;0.00;0.00;;;;;23.27;43.95;100280.97;4881977;29;46232;-79
2023/10/31 10:59:52;;;;;;;;;2.00;1.00;;;;;23.38;43.75;100294.66;4882218;29;45428;-79
2023/10/31 11:02:18;;;;;;;;;2.00;1.00;;;;;23.26;43.83;100279.34;4882089;29;45408;-79
2023/10/31 11:04:44;;;;;;;;;1.33;1.00;;;;;23.26;43.82;100281.19;4882053;29;45373;-79
2023/10/31 11:07:10;;;;;;;;;1.00;1.00;;;;;23.36;43.80;100300.19;4881683;29;45972;-79
2023/10/31 11:09:37;;;;;;;;;0.67;0.00;;;;;23.26;43.68;100286.50;4882079;29;45313;-79
2023/10/31 11:12:04;;;;;;;;;3.00;1.33;;;;;23.33;44.00;100289.16;4882448;29;45325;-78
2023/10/31 11:14:31;;;;;;;;;1.00;1.00;;;;;23.27;43.68;100294.25;4881956;29;45388;-79
2023/10/31 11:17:02;;;;;;;;;1.00;1.00;;;;;23.32;43.74;100296.28;4881799;29;47302;-80
2023/10/31 11:19:28;;;;;;;;;1.67;0.67;;;;;23.38;43.91;100314.06;4881824;29;45465;-79
2023/10/31 11:22:02;;;;;;;;;1.00;1.00;;;;;23.39;43.80;100310.38;4880268;29;45444;-78
2023/10/31 11:24:36;;;;;;;;;1.33;0.00;;;;;23.36;44.18;100299.38;4881877;29;45288;-79